sensor_id;sensor_type;location;lat;lon;timestamp;P1;durP1;ratioP1;P2;durP2;ratioP2
46090;SDS011;31826;53.572;10.170;2023-03-11T00:02:15;11.07;;;5.38;;
46090;SDS011;31826;53.572;10.170;2023-03-11T00:04:42;12.18;;;5.63;;
46090;SDS011;31826;53.572;10.170;2023-03-11T00:07:08;11.18;;;5.30;;
46090;SDS011;31826;53.572;10.170;2023-03-11T00:09:35;12.57;;;6.03;;
46090;SDS011;31826;53.572;10.170;2023-03-11T00:12:01;13.27;;;5.60;;
46090;SDS011;31826;53.572;10.170;2023-03-11T00:14:27;11.90;;;5.60;;
46090;SDS011;31826;53.572;10.170;2023-03-11T00:16:53;12.07;;;5.20;;
46090;SDS011;31826;53.572;10.170;2023-03-11T00:19:19;12.55;;;5.63;;
46090;SDS011;31826;53.572;10.170;2023-03-11T00:21:45;13.18;;;5.97;;
46090;SDS011;31826;53.572;10.170;2023-03-11T00:24:11;11.50;;;5.30;;
46090;SDS011;31826;53.572;10.170;2023-03-11T00:26:37;14.30;;;6.27;;
46090;SDS011;31826;53.572;10.170;2023-03-11T00:29:02;13.77;;;6.47;;
46090;SDS011;31826;53.572;10.170;2023-03-11T00:31:28;13.13;;;5.90;;
46090;SDS011;31826;53.572;10.170;2023-03-11T00:33:54;13.57;;;6.83;;
46090;SDS011;31826;53.572;10.170;2023-03-11T00:38:55;12.82;;;6.68;;
46090;SDS011;31826;53.572;10.170;2023-03-11T00:41:22;13.88;;;6.55;;
46090;SDS011;31826;53.572;10.170;2023-03-11T00:43:47;16.67;;;7.38;;
46090;SDS011;31826;53.572;10.170;2023-03-11T00:46:13;14.65;;;6.97;;
46090;SDS011;31826;53.572;10.170;2023-03-11T00:48:39;15.60;;;7.20;;
46090;SDS011;31826;53.572;10.170;2023-03-11T00:51:10;14.18;;;7.43;;
46090;SDS011;31826;53.572;10.170;2023-03-11T00:53:38;13.95;;;6.35;;
46090;SDS011;31826;53.572;10.170;2023-03-11T00:56:05;15.93;;;7.03;;
46090;SDS011;31826;53.572;10.170;2023-03-11T00:58:35;15.83;;;7.30;;
46090;SDS011;31826;53.572;10.170;2023-03-11T01:01:06;15.17;;;7.20;;
46090;SDS011;31826;53.572;10.170;2023-03-11T01:03:33;14.82;;;7.40;;
46090;SDS011;31826;53.572;10.170;2023-03-11T01:05:58;16.60;;;7.43;;
46090;SDS011;31826;53.572;10.170;2023-03-11T01:08:24;17.35;;;8.15;;
46090;SDS011;31826;53.572;10.170;2023-03-11T01:10:51;16.40;;;8.30;;
46090;SDS011;31826;53.572;10.170;2023-03-11T01:13:18;16.35;;;8.35;;
46090;SDS011;31826;53.572;10.170;2023-03-11T01:15:43;16.07;;;7.90;;
46090;SDS011;31826;53.572;10.170;2023-03-11T01:18:09;15.03;;;8.07;;
46090;SDS011;31826;53.572;10.170;2023-03-11T01:20:36;14.33;;;7.47;;
46090;SDS011;31826;53.572;10.170;2023-03-11T01:23:02;17.55;;;8.18;;
46090;SDS011;31826;53.572;10.170;2023-03-11T01:25:28;16.02;;;8.40;;
46090;SDS011;31826;53.572;10.170;2023-03-11T01:27:54;15.73;;;8.50;;
46090;SDS011;31826;53.572;10.170;2023-03-11T01:30:20;16.30;;;8.40;;
46090;SDS011;31826;53.572;10.170;2023-03-11T01:32:48;17.52;;;8.20;;
46090;SDS011;31826;53.572;10.170;2023-03-11T01:35:14;16.27;;;8.05;;
46090;SDS011;31826;53.572;10.170;2023-03-11T01:37:41;16.73;;;7.80;;
46090;SDS011;31826;53.572;10.170;2023-03-11T01:40:08;16.05;;;7.82;;
46090;SDS011;31826;53.572;10.170;2023-03-11T01:42:44;17.48;;;8.73;;
46090;SDS011;31826;53.572;10.170;2023-03-11T01:45:24;17.73;;;8.23;;
46090;SDS011;31826;53.572;10.170;2023-03-11T01:47:54;17.10;;;8.00;;
46090;SDS011;31826;53.572;10.170;2023-03-11T01:50:20;16.90;;;7.75;;
46090;SDS011;31826;53.572;10.170;2023-03-11T01:52:46;14.65;;;7.03;;
46090;SDS011;31826;53.572;10.170;2023-03-11T01:55:12;14.73;;;7.15;;
46090;SDS011;31826;53.572;10.170;2023-03-11T01:57:41;15.40;;;7.20;;
46090;SDS011;31826;53.572;10.170;2023-03-11T02:00:10;16.15;;;7.85;;
46090;SDS011;31826;53.572;10.170;2023-03-11T02:02:39;17.58;;;7.85;;
46090;SDS011;31826;53.572;10.170;2023-03-11T02:05:09;18.27;;;8.18;;
46090;SDS011;31826;53.572;10.170;2023-03-11T02:07:37;16.42;;;7.95;;
46090;SDS011;31826;53.572;10.170;2023-03-11T02:10:04;17.83;;;8.50;;
46090;SDS011;31826;53.572;10.170;2023-03-11T02:12:33;15.15;;;7.60;;
46090;SDS011;31826;53.572;10.170;2023-03-11T02:15:00;15.75;;;7.22;;
46090;SDS011;31826;53.572;10.170;2023-03-11T02:17:27;16.67;;;8.43;;
46090;SDS011;31826;53.572;10.170;2023-03-11T02:22:40;15.65;;;7.60;;
46090;SDS011;31826;53.572;10.170;2023-03-11T02:28:04;16.20;;;7.38;;
46090;SDS011;31826;53.572;10.170;2023-03-11T02:30:34;14.10;;;6.93;;
46090;SDS011;31826;53.572;10.170;2023-03-11T02:33:00;14.85;;;7.18;;
46090;SDS011;31826;53.572;10.170;2023-03-11T02:35:27;14.13;;;7.20;;
46090;SDS011;31826;53.572;10.170;2023-03-11T02:37:53;16.77;;;8.15;;
46090;SDS011;31826;53.572;10.170;2023-03-11T02:42:58;13.93;;;7.13;;
46090;SDS011;31826;53.572;10.170;2023-03-11T02:45:26;15.38;;;7.40;;
46090;SDS011;31826;53.572;10.170;2023-03-11T02:47:55;18.10;;;7.72;;
46090;SDS011;31826;53.572;10.170;2023-03-11T02:50:23;15.32;;;7.70;;
46090;SDS011;31826;53.572;10.170;2023-03-11T02:52:51;15.95;;;7.38;;
46090;SDS011;31826;53.572;10.170;2023-03-11T02:55:17;14.30;;;7.07;;
46090;SDS011;31826;53.572;10.170;2023-03-11T02:57:44;15.88;;;7.38;;
46090;SDS011;31826;53.572;10.170;2023-03-11T03:00:11;15.15;;;7.45;;
46090;SDS011;31826;53.572;10.170;2023-03-11T03:02:40;15.68;;;7.97;;
46090;SDS011;31826;53.572;10.170;2023-03-11T03:05:06;15.23;;;7.35;;
46090;SDS011;31826;53.572;10.170;2023-03-11T03:07:32;15.98;;;7.57;;
46090;SDS011;31826;53.572;10.170;2023-03-11T03:09:58;14.50;;;7.05;;
46090;SDS011;31826;53.572;10.170;2023-03-11T03:12:24;14.83;;;7.73;;
46090;SDS011;31826;53.572;10.170;2023-03-11T03:14:49;16.70;;;7.37;;
46090;SDS011;31826;53.572;10.170;2023-03-11T03:17:15;14.70;;;7.33;;
46090;SDS011;31826;53.572;10.170;2023-03-11T03:19:41;14.17;;;6.23;;
46090;SDS011;31826;53.572;10.170;2023-03-11T03:22:07;15.47;;;7.10;;
46090;SDS011;31826;53.572;10.170;2023-03-11T03:24:32;15.17;;;7.30;;
46090;SDS011;31826;53.572;10.170;2023-03-11T03:26:58;16.73;;;7.33;;
46090;SDS011;31826;53.572;10.170;2023-03-11T03:29:24;14.47;;;7.00;;
46090;SDS011;31826;53.572;10.170;2023-03-11T03:31:49;14.30;;;6.97;;
46090;SDS011;31826;53.572;10.170;2023-03-11T03:34:15;13.83;;;6.50;;
46090;SDS011;31826;53.572;10.170;2023-03-11T03:36:41;12.83;;;6.17;;
46090;SDS011;31826;53.572;10.170;2023-03-11T03:39:06;12.73;;;6.20;;
46090;SDS011;31826;53.572;10.170;2023-03-11T03:41:32;13.67;;;6.17;;
46090;SDS011;31826;53.572;10.170;2023-03-11T03:43:58;14.30;;;6.15;;
46090;SDS011;31826;53.572;10.170;2023-03-11T03:46:24;14.38;;;6.53;;
46090;SDS011;31826;53.572;10.170;2023-03-11T03:48:50;12.13;;;6.07;;
46090;SDS011;31826;53.572;10.170;2023-03-11T03:51:15;13.30;;;5.82;;
46090;SDS011;31826;53.572;10.170;2023-03-11T03:53:41;12.02;;;5.90;;
46090;SDS011;31826;53.572;10.170;2023-03-11T03:56:09;10.90;;;5.60;;
46090;SDS011;31826;53.572;10.170;2023-03-11T03:58:36;12.82;;;5.78;;
46090;SDS011;31826;53.572;10.170;2023-03-11T04:01:02;11.60;;;5.72;;
46090;SDS011;31826;53.572;10.170;2023-03-11T04:03:29;12.90;;;5.88;;
46090;SDS011;31826;53.572;10.170;2023-03-11T04:06:04;11.10;;;5.80;;
46090;SDS011;31826;53.572;10.170;2023-03-11T04:08:33;14.02;;;6.18;;
46090;SDS011;31826;53.572;10.170;2023-03-11T04:10:59;11.33;;;5.20;;
46090;SDS011;31826;53.572;10.170;2023-03-11T04:13:25;14.10;;;6.53;;
46090;SDS011;31826;53.572;10.170;2023-03-11T04:15:51;13.10;;;6.20;;
46090;SDS011;31826;53.572;10.170;2023-03-11T04:18:16;13.13;;;6.07;;
46090;SDS011;31826;53.572;10.170;2023-03-11T04:20:42;14.30;;;6.95;;
46090;SDS011;31826;53.572;10.170;2023-03-11T04:23:08;13.10;;;5.90;;
46090;SDS011;31826;53.572;10.170;2023-03-11T04:25:33;14.27;;;6.80;;
46090;SDS011;31826;53.572;10.170;2023-03-11T04:27:59;12.70;;;6.07;;
46090;SDS011;31826;53.572;10.170;2023-03-11T04:30:25;14.07;;;6.97;;
46090;SDS011;31826;53.572;10.170;2023-03-11T04:32:50;12.63;;;6.00;;
46090;SDS011;31826;53.572;10.170;2023-03-11T04:35:16;13.40;;;6.03;;
46090;SDS011;31826;53.572;10.170;2023-03-11T04:37:42;12.00;;;5.80;;
46090;SDS011;31826;53.572;10.170;2023-03-11T04:40:08;13.30;;;5.90;;
46090;SDS011;31826;53.572;10.170;2023-03-11T04:42:35;13.80;;;6.00;;
46090;SDS011;31826;53.572;10.170;2023-03-11T04:45:01;13.65;;;6.03;;
46090;SDS011;31826;53.572;10.170;2023-03-11T04:47:27;12.43;;;5.75;;
46090;SDS011;31826;53.572;10.170;2023-03-11T04:49:52;13.77;;;5.85;;
46090;SDS011;31826;53.572;10.170;2023-03-11T04:52:20;13.23;;;6.60;;
46090;SDS011;31826;53.572;10.170;2023-03-11T04:54:46;13.70;;;6.00;;
46090;SDS011;31826;53.572;10.170;2023-03-11T04:57:12;13.93;;;6.33;;
46090;SDS011;31826;53.572;10.170;2023-03-11T04:59:37;13.23;;;6.03;;
46090;SDS011;31826;53.572;10.170;2023-03-11T05:02:03;12.75;;;6.05;;
46090;SDS011;31826;53.572;10.170;2023-03-11T05:04:29;13.30;;;6.43;;
46090;SDS011;31826;53.572;10.170;2023-03-11T05:06:55;14.18;;;6.13;;
46090;SDS011;31826;53.572;10.170;2023-03-11T05:09:20;12.25;;;6.05;;
46090;SDS011;31826;53.572;10.170;2023-03-11T05:11:46;11.65;;;5.30;;
46090;SDS011;31826;53.572;10.170;2023-03-11T05:14:12;13.25;;;5.75;;
46090;SDS011;31826;53.572;10.170;2023-03-11T05:16:37;12.73;;;6.07;;
46090;SDS011;31826;53.572;10.170;2023-03-11T05:19:03;13.20;;;6.10;;
46090;SDS011;31826;53.572;10.170;2023-03-11T05:21:52;10.80;;;5.40;;
46090;SDS011;31826;53.572;10.170;2023-03-11T05:24:18;12.75;;;5.55;;
46090;SDS011;31826;53.572;10.170;2023-03-11T05:26:44;13.60;;;5.90;;
46090;SDS011;31826;53.572;10.170;2023-03-11T05:29:09;13.97;;;6.30;;
46090;SDS011;31826;53.572;10.170;2023-03-11T05:31:35;13.27;;;5.93;;
46090;SDS011;31826;53.572;10.170;2023-03-11T05:34:00;12.93;;;5.80;;
46090;SDS011;31826;53.572;10.170;2023-03-11T05:36:26;13.65;;;6.03;;
46090;SDS011;31826;53.572;10.170;2023-03-11T05:38:52;14.55;;;6.43;;
46090;SDS011;31826;53.572;10.170;2023-03-11T05:41:18;13.45;;;6.18;;
46090;SDS011;31826;53.572;10.170;2023-03-11T05:43:44;15.15;;;6.20;;
46090;SDS011;31826;53.572;10.170;2023-03-11T05:46:10;12.85;;;6.07;;
46090;SDS011;31826;53.572;10.170;2023-03-11T05:48:36;14.60;;;6.22;;
46090;SDS011;31826;53.572;10.170;2023-03-11T05:51:09;13.75;;;6.32;;
46090;SDS011;31826;53.572;10.170;2023-03-11T05:53:35;13.10;;;5.97;;
46090;SDS011;31826;53.572;10.170;2023-03-11T05:56:02;13.45;;;6.18;;
46090;SDS011;31826;53.572;10.170;2023-03-11T05:58:28;14.23;;;6.23;;
46090;SDS011;31826;53.572;10.170;2023-03-11T06:00:54;14.75;;;6.30;;
46090;SDS011;31826;53.572;10.170;2023-03-11T06:03:20;14.33;;;6.93;;
46090;SDS011;31826;53.572;10.170;2023-03-11T06:05:47;15.68;;;6.25;;
46090;SDS011;31826;53.572;10.170;2023-03-11T06:08:13;14.38;;;6.70;;
46090;SDS011;31826;53.572;10.170;2023-03-11T06:10:40;17.10;;;6.65;;
46090;SDS011;31826;53.572;10.170;2023-03-11T06:13:07;13.85;;;6.63;;
46090;SDS011;31826;53.572;10.170;2023-03-11T06:15:34;15.05;;;6.75;;
46090;SDS011;31826;53.572;10.170;2023-03-11T06:18:00;16.15;;;7.05;;
46090;SDS011;31826;53.572;10.170;2023-03-11T06:20:26;15.82;;;7.80;;
46090;SDS011;31826;53.572;10.170;2023-03-11T06:22:52;17.10;;;8.38;;
46090;SDS011;31826;53.572;10.170;2023-03-11T06:25:18;15.48;;;8.50;;
46090;SDS011;31826;53.572;10.170;2023-03-11T06:27:47;14.48;;;6.97;;
46090;SDS011;31826;53.572;10.170;2023-03-11T06:30:18;14.43;;;7.57;;
46090;SDS011;31826;53.572;10.170;2023-03-11T06:32:44;14.32;;;6.88;;
46090;SDS011;31826;53.572;10.170;2023-03-11T06:35:11;16.63;;;8.27;;
46090;SDS011;31826;53.572;10.170;2023-03-11T06:37:37;15.85;;;7.57;;
46090;SDS011;31826;53.572;10.170;2023-03-11T06:40:04;15.18;;;8.05;;
46090;SDS011;31826;53.572;10.170;2023-03-11T06:42:31;14.80;;;6.33;;
46090;SDS011;31826;53.572;10.170;2023-03-11T06:44:57;14.40;;;6.40;;
46090;SDS011;31826;53.572;10.170;2023-03-11T06:47:23;13.95;;;6.80;;
46090;SDS011;31826;53.572;10.170;2023-03-11T06:49:50;14.05;;;6.10;;
46090;SDS011;31826;53.572;10.170;2023-03-11T06:52:16;15.80;;;6.18;;
46090;SDS011;31826;53.572;10.170;2023-03-11T06:54:42;14.68;;;6.75;;
46090;SDS011;31826;53.572;10.170;2023-03-11T06:57:07;16.20;;;6.47;;
46090;SDS011;31826;53.572;10.170;2023-03-11T06:59:34;14.25;;;6.63;;
46090;SDS011;31826;53.572;10.170;2023-03-11T07:02:00;16.00;;;6.20;;
46090;SDS011;31826;53.572;10.170;2023-03-11T07:04:27;14.07;;;6.93;;
46090;SDS011;31826;53.572;10.170;2023-03-11T07:06:54;12.82;;;5.85;;
46090;SDS011;31826;53.572;10.170;2023-03-11T07:09:20;13.85;;;6.40;;
46090;SDS011;31826;53.572;10.170;2023-03-11T07:11:47;13.10;;;6.30;;
46090;SDS011;31826;53.572;10.170;2023-03-11T07:14:13;14.20;;;6.55;;
46090;SDS011;31826;53.572;10.170;2023-03-11T07:16:39;12.23;;;5.68;;
46090;SDS011;31826;53.572;10.170;2023-03-11T07:19:05;13.13;;;5.80;;
46090;SDS011;31826;53.572;10.170;2023-03-11T07:21:31;18.85;;;8.77;;
46090;SDS011;31826;53.572;10.170;2023-03-11T07:23:58;12.30;;;5.20;;
46090;SDS011;31826;53.572;10.170;2023-03-11T07:26:25;10.82;;;5.25;;
46090;SDS011;31826;53.572;10.170;2023-03-11T07:28:52;12.80;;;5.65;;
46090;SDS011;31826;53.572;10.170;2023-03-11T07:31:20;11.05;;;5.15;;
46090;SDS011;31826;53.572;10.170;2023-03-11T07:33:48;12.35;;;5.30;;
46090;SDS011;31826;53.572;10.170;2023-03-11T07:36:15;13.95;;;5.60;;
46090;SDS011;31826;53.572;10.170;2023-03-11T07:38:43;12.33;;;5.13;;
46090;SDS011;31826;53.572;10.170;2023-03-11T07:41:10;14.80;;;5.75;;
46090;SDS011;31826;53.572;10.170;2023-03-11T07:43:37;13.93;;;5.50;;
46090;SDS011;31826;53.572;10.170;2023-03-11T07:48:31;14.45;;;6.13;;
46090;SDS011;31826;53.572;10.170;2023-03-11T07:51:01;12.67;;;5.43;;
46090;SDS011;31826;53.572;10.170;2023-03-11T07:53:28;13.13;;;4.85;;
46090;SDS011;31826;53.572;10.170;2023-03-11T07:55:55;9.45;;;4.13;;
46090;SDS011;31826;53.572;10.170;2023-03-11T07:58:21;11.70;;;4.18;;
46090;SDS011;31826;53.572;10.170;2023-03-11T08:00:47;10.88;;;4.60;;
46090;SDS011;31826;53.572;10.170;2023-03-11T08:03:13;11.40;;;5.13;;
46090;SDS011;31826;53.572;10.170;2023-03-11T08:05:38;9.82;;;4.40;;
46090;SDS011;31826;53.572;10.170;2023-03-11T08:08:04;12.25;;;4.40;;
46090;SDS011;31826;53.572;10.170;2023-03-11T08:10:30;10.70;;;4.55;;
46090;SDS011;31826;53.572;10.170;2023-03-11T08:12:55;12.75;;;4.85;;
46090;SDS011;31826;53.572;10.170;2023-03-11T08:15:21;9.67;;;4.30;;
46090;SDS011;31826;53.572;10.170;2023-03-11T08:17:46;8.97;;;4.17;;
46090;SDS011;31826;53.572;10.170;2023-03-11T08:20:12;8.73;;;4.10;;
46090;SDS011;31826;53.572;10.170;2023-03-11T08:22:38;12.40;;;4.37;;
46090;SDS011;31826;53.572;10.170;2023-03-11T08:25:04;9.87;;;4.23;;
46090;SDS011;31826;53.572;10.170;2023-03-11T08:27:30;10.85;;;4.20;;
46090;SDS011;31826;53.572;10.170;2023-03-11T08:29:56;8.82;;;3.63;;
46090;SDS011;31826;53.572;10.170;2023-03-11T08:32:23;8.65;;;3.85;;
46090;SDS011;31826;53.572;10.170;2023-03-11T08:34:48;8.03;;;3.40;;
46090;SDS011;31826;53.572;10.170;2023-03-11T08:37:14;8.70;;;3.27;;
46090;SDS011;31826;53.572;10.170;2023-03-11T08:39:40;8.55;;;3.65;;
46090;SDS011;31826;53.572;10.170;2023-03-11T08:42:05;9.13;;;3.83;;
46090;SDS011;31826;53.572;10.170;2023-03-11T08:44:31;7.72;;;2.85;;
46090;SDS011;31826;53.572;10.170;2023-03-11T08:46:57;9.48;;;3.58;;
46090;SDS011;31826;53.572;10.170;2023-03-11T08:49:22;7.45;;;3.30;;
46090;SDS011;31826;53.572;10.170;2023-03-11T08:51:48;6.93;;;3.17;;
46090;SDS011;31826;53.572;10.170;2023-03-11T08:54:14;7.68;;;3.17;;
46090;SDS011;31826;53.572;10.170;2023-03-11T08:56:40;8.63;;;3.50;;
46090;SDS011;31826;53.572;10.170;2023-03-11T08:59:05;7.28;;;2.90;;
46090;SDS011;31826;53.572;10.170;2023-03-11T09:01:32;8.35;;;3.33;;
46090;SDS011;31826;53.572;10.170;2023-03-11T09:03:58;8.63;;;3.10;;
46090;SDS011;31826;53.572;10.170;2023-03-11T09:06:24;9.40;;;3.42;;
46090;SDS011;31826;53.572;10.170;2023-03-11T09:08:50;8.20;;;3.60;;
46090;SDS011;31826;53.572;10.170;2023-03-11T09:11:16;6.53;;;2.90;;
46090;SDS011;31826;53.572;10.170;2023-03-11T09:13:42;8.77;;;2.90;;
46090;SDS011;31826;53.572;10.170;2023-03-11T09:16:11;7.80;;;3.10;;
46090;SDS011;31826;53.572;10.170;2023-03-11T09:18:39;6.40;;;3.07;;
46090;SDS011;31826;53.572;10.170;2023-03-11T09:21:04;8.20;;;2.80;;
46090;SDS011;31826;53.572;10.170;2023-03-11T09:23:30;7.07;;;2.87;;
46090;SDS011;31826;53.572;10.170;2023-03-11T09:25:56;7.05;;;2.80;;
46090;SDS011;31826;53.572;10.170;2023-03-11T09:28:22;5.77;;;2.70;;
46090;SDS011;31826;53.572;10.170;2023-03-11T09:30:47;6.80;;;2.50;;
46090;SDS011;31826;53.572;10.170;2023-03-11T09:33:13;5.47;;;2.30;;
46090;SDS011;31826;53.572;10.170;2023-03-11T09:35:39;6.27;;;2.40;;
46090;SDS011;31826;53.572;10.170;2023-03-11T09:38:04;4.77;;;2.20;;
46090;SDS011;31826;53.572;10.170;2023-03-11T09:51:56;4.97;;;2.05;;
46090;SDS011;31826;53.572;10.170;2023-03-11T09:54:44;5.65;;;2.28;;
46090;SDS011;31826;53.572;10.170;2023-03-11T09:57:17;4.88;;;2.08;;
46090;SDS011;31826;53.572;10.170;2023-03-11T09:59:46;4.78;;;2.40;;
46090;SDS011;31826;53.572;10.170;2023-03-11T10:02:20;4.80;;;2.05;;
46090;SDS011;31826;53.572;10.170;2023-03-11T10:04:52;9.35;;;3.10;;
46090;SDS011;31826;53.572;10.170;2023-03-11T10:07:32;7.82;;;2.78;;
46090;SDS011;31826;53.572;10.170;2023-03-11T10:10:04;4.68;;;2.22;;
46090;SDS011;31826;53.572;10.170;2023-03-11T10:18:04;5.68;;;2.03;;
46090;SDS011;31826;53.572;10.170;2023-03-11T10:26:40;5.45;;;2.00;;
46090;SDS011;31826;53.572;10.170;2023-03-11T10:29:16;4.47;;;1.90;;
46090;SDS011;31826;53.572;10.170;2023-03-11T10:37:28;4.63;;;1.70;;
46090;SDS011;31826;53.572;10.170;2023-03-11T10:40:01;3.70;;;1.60;;
46090;SDS011;31826;53.572;10.170;2023-03-11T10:42:38;4.97;;;1.83;;
46090;SDS011;31826;53.572;10.170;2023-03-11T10:45:10;6.15;;;1.95;;
46090;SDS011;31826;53.572;10.170;2023-03-11T10:47:38;2.87;;;1.60;;
46090;SDS011;31826;53.572;10.170;2023-03-11T10:50:03;4.90;;;1.80;;
46090;SDS011;31826;53.572;10.170;2023-03-11T10:52:29;5.13;;;1.67;;
46090;SDS011;31826;53.572;10.170;2023-03-11T10:55:01;4.53;;;1.50;;
46090;SDS011;31826;53.572;10.170;2023-03-11T10:57:35;4.35;;;1.63;;
46090;SDS011;31826;53.572;10.170;2023-03-11T11:00:10;4.53;;;1.63;;
46090;SDS011;31826;53.572;10.170;2023-03-11T11:02:57;5.28;;;1.58;;
46090;SDS011;31826;53.572;10.170;2023-03-11T11:05:28;6.88;;;1.80;;
46090;SDS011;31826;53.572;10.170;2023-03-11T11:08:04;4.25;;;1.60;;
46090;SDS011;31826;53.572;10.170;2023-03-11T11:10:51;4.38;;;1.70;;
46090;SDS011;31826;53.572;10.170;2023-03-11T11:13:21;7.78;;;1.90;;
46090;SDS011;31826;53.572;10.170;2023-03-11T11:18:41;4.60;;;1.60;;
46090;SDS011;31826;53.572;10.170;2023-03-11T11:23:42;2.38;;;1.48;;
46090;SDS011;31826;53.572;10.170;2023-03-11T11:26:22;3.28;;;1.48;;
46090;SDS011;31826;53.572;10.170;2023-03-11T11:31:33;3.28;;;1.55;;
46090;SDS011;31826;53.572;10.170;2023-03-11T11:33:59;3.40;;;1.67;;
46090;SDS011;31826;53.572;10.170;2023-03-11T11:36:29;5.55;;;2.13;;
46090;SDS011;31826;53.572;10.170;2023-03-11T11:38:58;6.67;;;1.57;;
46090;SDS011;31826;53.572;10.170;2023-03-11T11:41:28;8.38;;;1.80;;
46090;SDS011;31826;53.572;10.170;2023-03-11T11:44:03;4.05;;;1.80;;
46090;SDS011;31826;53.572;10.170;2023-03-11T11:46:37;5.15;;;1.73;;
46090;SDS011;31826;53.572;10.170;2023-03-11T11:51:40;5.82;;;1.95;;
46090;SDS011;31826;53.572;10.170;2023-03-11T11:54:21;5.22;;;1.75;;
46090;SDS011;31826;53.572;10.170;2023-03-11T11:56:48;4.35;;;1.67;;
46090;SDS011;31826;53.572;10.170;2023-03-11T11:59:17;5.37;;;1.73;;
46090;SDS011;31826;53.572;10.170;2023-03-11T12:04:56;6.80;;;1.85;;
46090;SDS011;31826;53.572;10.170;2023-03-11T12:07:42;7.60;;;1.80;;
46090;SDS011;31826;53.572;10.170;2023-03-11T12:15:38;6.33;;;1.70;;
46090;SDS011;31826;53.572;10.170;2023-03-11T12:18:34;3.47;;;1.55;;
46090;SDS011;31826;53.572;10.170;2023-03-11T12:20:59;5.68;;;1.42;;
46090;SDS011;31826;53.572;10.170;2023-03-11T12:23:50;2.35;;;1.20;;
46090;SDS011;31826;53.572;10.170;2023-03-11T12:26:47;5.32;;;1.30;;
46090;SDS011;31826;53.572;10.170;2023-03-11T12:29:24;5.43;;;1.17;;
46090;SDS011;31826;53.572;10.170;2023-03-11T12:31:56;4.75;;;1.35;;
46090;SDS011;31826;53.572;10.170;2023-03-11T12:34:25;4.00;;;1.30;;
46090;SDS011;31826;53.572;10.170;2023-03-11T12:36:53;3.95;;;1.08;;
46090;SDS011;31826;53.572;10.170;2023-03-11T12:39:28;4.70;;;1.30;;
46090;SDS011;31826;53.572;10.170;2023-03-11T12:44:42;5.88;;;1.40;;
46090;SDS011;31826;53.572;10.170;2023-03-11T12:49:39;7.22;;;1.05;;
46090;SDS011;31826;53.572;10.170;2023-03-11T12:54:45;2.90;;;1.10;;
46090;SDS011;31826;53.572;10.170;2023-03-11T12:57:25;3.30;;;0.98;;
46090;SDS011;31826;53.572;10.170;2023-03-11T13:05:46;4.03;;;1.38;;
46090;SDS011;31826;53.572;10.170;2023-03-11T13:16:56;3.15;;;1.48;;
46090;SDS011;31826;53.572;10.170;2023-03-11T13:19:50;2.97;;;1.25;;
46090;SDS011;31826;53.572;10.170;2023-03-11T13:30:48;7.00;;;1.60;;
46090;SDS011;31826;53.572;10.170;2023-03-11T13:33:19;2.60;;;1.20;;
46090;SDS011;31826;53.572;10.170;2023-03-11T13:40:59;7.33;;;2.20;;
46090;SDS011;31826;53.572;10.170;2023-03-11T13:43:27;4.65;;;1.20;;
46090;SDS011;31826;53.572;10.170;2023-03-11T13:48:27;4.22;;;1.10;;
46090;SDS011;31826;53.572;10.170;2023-03-11T13:51:02;6.18;;;1.50;;
46090;SDS011;31826;53.572;10.170;2023-03-11T13:53:42;3.42;;;1.40;;
46090;SDS011;31826;53.572;10.170;2023-03-11T13:56:21;2.72;;;1.38;;
46090;SDS011;31826;53.572;10.170;2023-03-11T13:58:51;2.28;;;1.20;;
46090;SDS011;31826;53.572;10.170;2023-03-11T14:01:16;4.35;;;1.40;;
46090;SDS011;31826;53.572;10.170;2023-03-11T14:03:43;5.85;;;1.60;;
46090;SDS011;31826;53.572;10.170;2023-03-11T14:06:14;1.35;;;0.80;;
46090;SDS011;31826;53.572;10.170;2023-03-11T14:08:41;3.93;;;1.60;;
46090;SDS011;31826;53.572;10.170;2023-03-11T14:11:16;3.90;;;1.10;;
46090;SDS011;31826;53.572;10.170;2023-03-11T14:19:01;1.03;;;0.97;;
46090;SDS011;31826;53.572;10.170;2023-03-11T14:21:42;3.40;;;1.10;;
46090;SDS011;31826;53.572;10.170;2023-03-11T14:24:16;7.45;;;1.95;;
46090;SDS011;31826;53.572;10.170;2023-03-11T14:26:43;3.13;;;1.10;;
46090;SDS011;31826;53.572;10.170;2023-03-11T14:29:14;8.68;;;2.70;;
46090;SDS011;31826;53.572;10.170;2023-03-11T14:31:45;4.60;;;2.00;;
46090;SDS011;31826;53.572;10.170;2023-03-11T14:34:18;5.00;;;2.20;;
46090;SDS011;31826;53.572;10.170;2023-03-11T14:36:52;3.80;;;1.25;;
46090;SDS011;31826;53.572;10.170;2023-03-11T14:41:50;3.53;;;1.05;;
46090;SDS011;31826;53.572;10.170;2023-03-11T14:44:19;5.40;;;1.08;;
46090;SDS011;31826;53.572;10.170;2023-03-11T14:46:46;1.90;;;1.20;;
46090;SDS011;31826;53.572;10.170;2023-03-11T14:49:19;2.37;;;1.10;;
46090;SDS011;31826;53.572;10.170;2023-03-11T14:51:54;4.97;;;0.95;;
46090;SDS011;31826;53.572;10.170;2023-03-11T14:54:24;4.07;;;1.20;;
46090;SDS011;31826;53.572;10.170;2023-03-11T14:57:01;4.13;;;1.00;;
46090;SDS011;31826;53.572;10.170;2023-03-11T14:59:30;1.53;;;1.00;;
46090;SDS011;31826;53.572;10.170;2023-03-11T15:02:11;2.40;;;1.20;;
46090;SDS011;31826;53.572;10.170;2023-03-11T15:04:44;2.47;;;1.20;;
46090;SDS011;31826;53.572;10.170;2023-03-11T15:07:10;1.90;;;1.00;;
46090;SDS011;31826;53.572;10.170;2023-03-11T15:09:39;3.58;;;1.20;;
46090;SDS011;31826;53.572;10.170;2023-03-11T15:12:06;4.28;;;1.48;;
46090;SDS011;31826;53.572;10.170;2023-03-11T15:14:35;2.63;;;1.08;;
46090;SDS011;31826;53.572;10.170;2023-03-11T15:17:22;1.48;;;1.08;;
46090;SDS011;31826;53.572;10.170;2023-03-11T15:19:51;3.17;;;1.20;;
46090;SDS011;31826;53.572;10.170;2023-03-11T15:25:18;2.15;;;0.90;;
46090;SDS011;31826;53.572;10.170;2023-03-11T15:27:43;7.97;;;1.40;;
46090;SDS011;31826;53.572;10.170;2023-03-11T15:30:29;1.38;;;0.93;;
46090;SDS011;31826;53.572;10.170;2023-03-11T15:32:55;2.27;;;1.00;;
46090;SDS011;31826;53.572;10.170;2023-03-11T15:35:23;5.72;;;1.05;;
46090;SDS011;31826;53.572;10.170;2023-03-11T15:38:11;2.92;;;1.30;;
46090;SDS011;31826;53.572;10.170;2023-03-11T15:40:40;3.08;;;1.08;;
46090;SDS011;31826;53.572;10.170;2023-03-11T15:43:26;3.05;;;1.10;;
46090;SDS011;31826;53.572;10.170;2023-03-11T15:45:55;4.22;;;1.42;;
46090;SDS011;31826;53.572;10.170;2023-03-11T15:48:23;3.75;;;1.30;;
46090;SDS011;31826;53.572;10.170;2023-03-11T15:53:15;4.47;;;1.27;;
46090;SDS011;31826;53.572;10.170;2023-03-11T15:55:41;3.60;;;1.60;;
46090;SDS011;31826;53.572;10.170;2023-03-11T15:58:07;3.73;;;1.50;;
46090;SDS011;31826;53.572;10.170;2023-03-11T16:00:36;3.60;;;1.70;;
46090;SDS011;31826;53.572;10.170;2023-03-11T16:03:02;5.32;;;1.88;;
46090;SDS011;31826;53.572;10.170;2023-03-11T16:05:28;5.00;;;1.63;;
46090;SDS011;31826;53.572;10.170;2023-03-11T16:07:54;6.35;;;2.08;;
46090;SDS011;31826;53.572;10.170;2023-03-11T16:10:20;4.60;;;1.05;;
46090;SDS011;31826;53.572;10.170;2023-03-11T16:12:48;1.58;;;0.80;;
46090;SDS011;31826;53.572;10.170;2023-03-11T16:15:22;1.70;;;1.10;;
46090;SDS011;31826;53.572;10.170;2023-03-11T16:17:53;2.67;;;1.13;;
46090;SDS011;31826;53.572;10.170;2023-03-11T16:20:24;2.22;;;1.40;;
46090;SDS011;31826;53.572;10.170;2023-03-11T16:22:52;2.00;;;1.10;;
46090;SDS011;31826;53.572;10.170;2023-03-11T16:28:06;3.17;;;1.40;;
46090;SDS011;31826;53.572;10.170;2023-03-11T16:30:34;3.63;;;1.40;;
46090;SDS011;31826;53.572;10.170;2023-03-11T16:33:00;3.77;;;1.57;;